Alvada, Ohio
Current Conditions -  °F | °C
As of 11:31 AM on Tuesday 21 Oct 2014 (Local Time) from KFDY Reporting Station
Light Rain Light Rain  
Wind Chill: 45°   Ceiling: 800
Heat Index: 49°   Visibility: 5mi
Dew Point: 46°   Wind: 9mph
Humidity: 90%   Direction: 320°NW
Pressure: 30.01"   Gusts: NA
Location:  41.05°N, 83.4°W
Report Text: KFDY 211531Z AUTO 32008KT 5SM -RA BR BKN008 OVC014 09/08 A3001 RMK AO2 RAB22 CIG 006V010 P0000 T00940078
Loading
Personal Weather Stations






























Interactive Weather Map New forecast layout! Learn more

10-Day Weather Forecast

Advertisements
Track Severe Weather on mobile